sensor_id;sensor_type;location;lat;lon;timestamp;pressure;altitude;pressure_sealevel;temperature;humidity
73842;BME280;62184;52.006;5.924;2023-04-24T00:00:47;99091.72;;;15.21;59.03
73842;BME280;62184;52.006;5.924;2023-04-24T00:03:16;99093.97;;;15.27;59.19
73842;BME280;62184;52.006;5.924;2023-04-24T00:05:42;99098.28;;;15.30;58.78
73842;BME280;62184;52.006;5.924;2023-04-24T00:08:09;99107.06;;;15.32;58.61
73842;BME280;62184;52.006;5.924;2023-04-24T00:10:35;99100.97;;;15.30;59.00
73842;BME280;62184;52.006;5.924;2023-04-24T00:13:02;99108.06;;;15.31;58.88
73842;BME280;62184;52.006;5.924;2023-04-24T00:15:28;99104.38;;;15.32;58.68
73842;BME280;62184;52.006;5.924;2023-04-24T00:17:54;99111.81;;;15.28;58.63
73842;BME280;62184;52.006;5.924;2023-04-24T00:20:23;99115.59;;;15.26;58.75
73842;BME280;62184;52.006;5.924;2023-04-24T00:22:50;99109.34;;;15.25;58.56
73842;BME280;62184;52.006;5.924;2023-04-24T00:25:16;99114.00;;;15.23;58.75
73842;BME280;62184;52.006;5.924;2023-04-24T00:27:43;99112.69;;;15.29;58.77
73842;BME280;62184;52.006;5.924;2023-04-24T00:30:10;99113.56;;;15.29;59.03
73842;BME280;62184;52.006;5.924;2023-04-24T00:32:36;99117.97;;;15.30;58.64
73842;BME280;62184;52.006;5.924;2023-04-24T00:35:04;99118.81;;;15.31;58.92
73842;BME280;62184;52.006;5.924;2023-04-24T00:37:34;99117.31;;;15.27;58.89
73842;BME280;62184;52.006;5.924;2023-04-24T00:40:00;99120.09;;;15.25;58.50
73842;BME280;62184;52.006;5.924;2023-04-24T00:42:27;99127.97;;;15.28;58.95
73842;BME280;62184;52.006;5.924;2023-04-24T00:44:53;99118.81;;;15.31;58.59
73842;BME280;62184;52.006;5.924;2023-04-24T00:47:20;99125.69;;;15.35;58.67
73842;BME280;62184;52.006;5.924;2023-04-24T00:49:46;99123.00;;;15.35;58.37
73842;BME280;62184;52.006;5.924;2023-04-24T00:52:13;99118.06;;;15.29;58.23
73842;BME280;62184;52.006;5.924;2023-04-24T00:54:42;99125.16;;;15.30;58.56
73842;BME280;62184;52.006;5.924;2023-04-24T00:57:08;99125.38;;;15.27;58.78
73842;BME280;62184;52.006;5.924;2023-04-24T00:59:35;99117.09;;;15.30;58.48
73842;BME280;62184;52.006;5.924;2023-04-24T01:02:02;99120.75;;;15.29;58.78
73842;BME280;62184;52.006;5.924;2023-04-24T01:04:28;99125.81;;;15.21;58.80
73842;BME280;62184;52.006;5.924;2023-04-24T01:06:56;99134.34;;;15.15;59.41
73842;BME280;62184;52.006;5.924;2023-04-24T01:09:23;99128.72;;;15.18;59.14
73842;BME280;62184;52.006;5.924;2023-04-24T01:11:52;99126.34;;;15.26;59.26
73842;BME280;62184;52.006;5.924;2023-04-24T01:14:20;99121.50;;;15.31;59.07
73842;BME280;62184;52.006;5.924;2023-04-24T01:16:46;99121.63;;;15.29;58.93
73842;BME280;62184;52.006;5.924;2023-04-24T01:19:14;99129.78;;;15.28;59.13
73842;BME280;62184;52.006;5.924;2023-04-24T01:21:45;99122.47;;;15.30;59.34
73842;BME280;62184;52.006;5.924;2023-04-24T01:24:19;99124.72;;;15.36;59.12
73842;BME280;62184;52.006;5.924;2023-04-24T01:26:45;99121.50;;;15.31;58.74
73842;BME280;62184;52.006;5.924;2023-04-24T01:29:12;99116.13;;;15.31;58.78
73842;BME280;62184;52.006;5.924;2023-04-24T01:31:39;99125.06;;;15.31;59.04
73842;BME280;62184;52.006;5.924;2023-04-24T01:34:06;99121.50;;;15.31;58.70
73842;BME280;62184;52.006;5.924;2023-04-24T01:36:33;99128.28;;;15.24;58.72
73842;BME280;62184;52.006;5.924;2023-04-24T01:39:01;99131.97;;;15.23;59.04
73842;BME280;62184;52.006;5.924;2023-04-24T01:41:30;99131.31;;;15.19;58.97
73842;BME280;62184;52.006;5.924;2023-04-24T01:43:57;99125.06;;;15.19;59.24
73842;BME280;62184;52.006;5.924;2023-04-24T01:46:24;99136.69;;;15.19;59.13
73842;BME280;62184;52.006;5.924;2023-04-24T01:48:51;99133.78;;;15.22;59.08
73842;BME280;62184;52.006;5.924;2023-04-24T01:51:18;99125.47;;;15.25;59.12
73842;BME280;62184;52.006;5.924;2023-04-24T01:53:45;99124.75;;;15.23;60.00
73842;BME280;62184;52.006;5.924;2023-04-24T01:56:11;99133.25;;;15.17;61.14
73842;BME280;62184;52.006;5.924;2023-04-24T01:58:40;99129.91;;;15.14;61.82
73842;BME280;62184;52.006;5.924;2023-04-24T02:01:07;99130.66;;;15.03;62.05
73842;BME280;62184;52.006;5.924;2023-04-24T02:03:33;99130.97;;;14.99;62.36
73842;BME280;62184;52.006;5.924;2023-04-24T02:06:00;99131.44;;;15.05;62.61
73842;BME280;62184;52.006;5.924;2023-04-24T02:08:26;99129.38;;;15.09;62.89
73842;BME280;62184;52.006;5.924;2023-04-24T02:10:53;99124.75;;;15.11;62.52
73842;BME280;62184;52.006;5.924;2023-04-24T02:13:19;99122.94;;;15.11;62.63
73842;BME280;62184;52.006;5.924;2023-04-24T02:15:48;99121.00;;;15.13;63.05
73842;BME280;62184;52.006;5.924;2023-04-24T02:18:15;99124.66;;;15.12;63.13
73842;BME280;62184;52.006;5.924;2023-04-24T02:20:41;99112.16;;;14.99;63.90
73842;BME280;62184;52.006;5.924;2023-04-24T02:23:07;99124.88;;;14.97;64.17
73842;BME280;62184;52.006;5.924;2023-04-24T02:25:34;99121.22;;;14.98;64.95
73842;BME280;62184;52.006;5.924;2023-04-24T02:28:00;99127.97;;;15.03;64.84
73842;BME280;62184;52.006;5.924;2023-04-24T02:30:27;99132.16;;;15.07;64.83
73842;BME280;62184;52.006;5.924;2023-04-24T02:32:56;99122.94;;;15.11;65.82
73842;BME280;62184;52.006;5.924;2023-04-24T02:35:22;99127.53;;;15.09;66.88
73842;BME280;62184;52.006;5.924;2023-04-24T02:37:48;99125.41;;;15.02;68.33
73842;BME280;62184;52.006;5.924;2023-04-24T02:40:15;99126.69;;;14.96;69.50
73842;BME280;62184;52.006;5.924;2023-04-24T02:42:41;99116.69;;;14.85;70.77
73842;BME280;62184;52.006;5.924;2023-04-24T02:45:09;99121.84;;;14.76;70.73
73842;BME280;62184;52.006;5.924;2023-04-24T02:47:36;99123.13;;;14.70;71.15
73842;BME280;62184;52.006;5.924;2023-04-24T02:50:06;99118.19;;;14.64;71.30
73842;BME280;62184;52.006;5.924;2023-04-24T02:52:33;99111.28;;;14.60;71.73
73842;BME280;62184;52.006;5.924;2023-04-24T02:54:59;99114.06;;;14.59;72.07
73842;BME280;62184;52.006;5.924;2023-04-24T02:57:26;99114.41;;;14.54;71.17
73842;BME280;62184;52.006;5.924;2023-04-24T02:59:52;99118.13;;;14.51;71.84
73842;BME280;62184;52.006;5.924;2023-04-24T03:02:19;99119.84;;;14.52;72.00
73842;BME280;62184;52.006;5.924;2023-04-24T03:04:45;99119.84;;;14.52;72.37
73842;BME280;62184;52.006;5.924;2023-04-24T03:07:14;99128.88;;;14.51;72.04
73842;BME280;62184;52.006;5.924;2023-04-24T03:09:40;99133.38;;;14.51;72.48
73842;BME280;62184;52.006;5.924;2023-04-24T03:12:07;99137.78;;;14.52;72.08
73842;BME280;62184;52.006;5.924;2023-04-24T03:14:33;99142.22;;;14.53;72.24
73842;BME280;62184;52.006;5.924;2023-04-24T03:17:00;99131.56;;;14.51;72.18
73842;BME280;62184;52.006;5.924;2023-04-24T03:19:27;99135.31;;;14.49;71.95
73842;BME280;62184;52.006;5.924;2023-04-24T03:21:53;99132.34;;;14.53;72.13
73842;BME280;62184;52.006;5.924;2023-04-24T03:24:22;99126.56;;;14.60;72.25
73842;BME280;62184;52.006;5.924;2023-04-24T03:26:48;99128.94;;;14.64;72.06
73842;BME280;62184;52.006;5.924;2023-04-24T03:29:15;99136.66;;;14.69;72.24
73842;BME280;62184;52.006;5.924;2023-04-24T03:31:41;99138.81;;;14.64;72.77
73842;BME280;62184;52.006;5.924;2023-04-24T03:34:08;99140.09;;;14.58;72.78
73842;BME280;62184;52.006;5.924;2023-04-24T03:36:34;99143.53;;;14.60;72.73
73842;BME280;62184;52.006;5.924;2023-04-24T03:39:00;99137.63;;;14.55;72.79
73842;BME280;62184;52.006;5.924;2023-04-24T03:41:29;99151.31;;;14.50;72.69
73842;BME280;62184;52.006;5.924;2023-04-24T03:43:56;99141.66;;;14.48;72.89
73842;BME280;62184;52.006;5.924;2023-04-24T03:46:22;99143.50;;;14.47;72.68
73842;BME280;62184;52.006;5.924;2023-04-24T03:48:48;99148.19;;;14.44;72.27
73842;BME280;62184;52.006;5.924;2023-04-24T03:51:15;99151.94;;;14.41;72.48
73842;BME280;62184;52.006;5.924;2023-04-24T03:53:41;99147.66;;;14.39;72.62
73842;BME280;62184;52.006;5.924;2023-04-24T03:56:08;99153.78;;;14.41;72.87
73842;BME280;62184;52.006;5.924;2023-04-24T03:58:37;99152.63;;;14.45;72.92
73842;BME280;62184;52.006;5.924;2023-04-24T04:01:04;99156.94;;;14.47;72.76
73842;BME280;62184;52.006;5.924;2023-04-24T04:03:30;99154.25;;;14.47;72.74
73842;BME280;62184;52.006;5.924;2023-04-24T04:05:56;99157.88;;;14.46;72.66
73842;BME280;62184;52.006;5.924;2023-04-24T04:08:23;99160.47;;;14.48;72.38
73842;BME280;62184;52.006;5.924;2023-04-24T04:10:50;99158.53;;;14.50;72.27
73842;BME280;62184;52.006;5.924;2023-04-24T04:13:16;99153.38;;;14.47;72.37
73842;BME280;62184;52.006;5.924;2023-04-24T04:15:45;99168.63;;;14.46;72.49
73842;BME280;62184;52.006;5.924;2023-04-24T04:18:12;99171.50;;;14.43;72.32
73842;BME280;62184;52.006;5.924;2023-04-24T04:20:38;99163.00;;;14.37;71.68
73842;BME280;62184;52.006;5.924;2023-04-24T04:23:04;99159.56;;;14.35;72.08
73842;BME280;62184;52.006;5.924;2023-04-24T04:25:31;99162.16;;;14.36;72.33
73842;BME280;62184;52.006;5.924;2023-04-24T04:27:57;99164.94;;;14.35;71.65
73842;BME280;62184;52.006;5.924;2023-04-24T04:30:24;99172.53;;;14.28;71.14
73842;BME280;62184;52.006;5.924;2023-04-24T04:32:53;99165.44;;;14.27;71.31
73842;BME280;62184;52.006;5.924;2023-04-24T04:35:19;99165.97;;;14.19;71.32
73842;BME280;62184;52.006;5.924;2023-04-24T04:37:46;99164.56;;;14.14;71.43
73842;BME280;62184;52.006;5.924;2023-04-24T04:40:12;99166.16;;;14.16;71.79
73842;BME280;62184;52.006;5.924;2023-04-24T04:42:38;99169.59;;;14.18;71.08
73842;BME280;62184;52.006;5.924;2023-04-24T04:45:06;99169.28;;;14.23;71.10
73842;BME280;62184;52.006;5.924;2023-04-24T04:47:33;99175.13;;;14.30;70.70
73842;BME280;62184;52.006;5.924;2023-04-24T04:50:03;99176.00;;;14.30;70.77
73842;BME280;62184;52.006;5.924;2023-04-24T04:52:30;99173.19;;;14.32;70.68
73842;BME280;62184;52.006;5.924;2023-04-24T04:54:57;99175.47;;;14.38;70.44
73842;BME280;62184;52.006;5.924;2023-04-24T04:57:24;99174.81;;;14.34;70.26
73842;BME280;62184;52.006;5.924;2023-04-24T04:59:50;99175.88;;;14.32;70.03
73842;BME280;62184;52.006;5.924;2023-04-24T05:02:17;99178.78;;;14.29;69.94
73842;BME280;62184;52.006;5.924;2023-04-24T05:04:43;99178.00;;;14.27;70.07
73842;BME280;62184;52.006;5.924;2023-04-24T05:07:12;99178.78;;;14.29;69.88
73842;BME280;62184;52.006;5.924;2023-04-24T05:09:39;99178.00;;;14.27;69.39
73842;BME280;62184;52.006;5.924;2023-04-24T05:12:05;99175.31;;;14.27;69.39
73842;BME280;62184;52.006;5.924;2023-04-24T05:14:32;99181.66;;;14.26;69.27
73842;BME280;62184;52.006;5.924;2023-04-24T05:16:58;99184.25;;;14.27;69.19
73842;BME280;62184;52.006;5.924;2023-04-24T05:19:25;99186.75;;;14.30;69.43
73842;BME280;62184;52.006;5.924;2023-04-24T05:21:51;99183.47;;;14.25;69.48
73842;BME280;62184;52.006;5.924;2023-04-24T05:24:20;99190.91;;;14.22;69.09
73842;BME280;62184;52.006;5.924;2023-04-24T05:26:46;99192.81;;;14.19;69.07
73842;BME280;62184;52.006;5.924;2023-04-24T05:29:13;99205.19;;;14.22;68.75
73842;BME280;62184;52.006;5.924;2023-04-24T05:31:39;99203.56;;;14.19;68.78
73842;BME280;62184;52.006;5.924;2023-04-24T05:34:06;99214.09;;;14.23;68.37
73842;BME280;62184;52.006;5.924;2023-04-24T05:36:32;99213.13;;;14.24;68.25
73842;BME280;62184;52.006;5.924;2023-04-24T05:38:58;99222.91;;;14.25;67.98
73842;BME280;62184;52.006;5.924;2023-04-24T05:41:27;99225.31;;;14.29;68.01
73842;BME280;62184;52.006;5.924;2023-04-24T05:43:54;99233.81;;;14.36;67.85
73842;BME280;62184;52.006;5.924;2023-04-24T05:46:20;99234.16;;;14.44;67.80
73842;BME280;62184;52.006;5.924;2023-04-24T05:48:46;99233.50;;;14.54;67.28
73842;BME280;62184;52.006;5.924;2023-04-24T05:51:13;99235.09;;;14.57;66.96
73842;BME280;62184;52.006;5.924;2023-04-24T05:53:39;99238.69;;;14.70;67.04
73842;BME280;62184;52.006;5.924;2023-04-24T05:56:06;99239.13;;;14.77;66.80
73842;BME280;62184;52.006;5.924;2023-04-24T05:58:35;99235.38;;;14.79;66.42
73842;BME280;62184;52.006;5.924;2023-04-24T06:01:01;99241.41;;;14.83;66.37
73842;BME280;62184;52.006;5.924;2023-04-24T06:03:27;99241.31;;;14.84;66.43
73842;BME280;62184;52.006;5.924;2023-04-24T06:05:54;99243.78;;;14.87;67.34
73842;BME280;62184;52.006;5.924;2023-04-24T06:08:20;99252.41;;;14.92;68.13
73842;BME280;62184;52.006;5.924;2023-04-24T06:10:47;99254.13;;;14.93;68.58
73842;BME280;62184;52.006;5.924;2023-04-24T06:13:13;99261.56;;;14.90;69.77
73842;BME280;62184;52.006;5.924;2023-04-24T06:15:43;99262.50;;;14.89;71.30
73842;BME280;62184;52.006;5.924;2023-04-24T06:18:09;99272.31;;;14.90;71.80
73842;BME280;62184;52.006;5.924;2023-04-24T06:20:36;99271.13;;;14.94;71.58
73842;BME280;62184;52.006;5.924;2023-04-24T06:23:02;99279.28;;;14.92;72.01
73842;BME280;62184;52.006;5.924;2023-04-24T06:25:29;99274.66;;;14.94;72.13
73842;BME280;62184;52.006;5.924;2023-04-24T06:27:55;99276.72;;;15.04;72.20
73842;BME280;62184;52.006;5.924;2023-04-24T06:30:22;99276.88;;;15.15;72.38
73842;BME280;62184;52.006;5.924;2023-04-24T06:32:52;99284.50;;;15.21;72.49
73842;BME280;62184;52.006;5.924;2023-04-24T06:35:18;99292.00;;;15.16;71.93
73842;BME280;62184;52.006;5.924;2023-04-24T06:37:45;99296.66;;;15.14;72.10
73842;BME280;62184;52.006;5.924;2023-04-24T06:40:12;99300.44;;;15.37;71.59
73842;BME280;62184;52.006;5.924;2023-04-24T06:42:39;99301.00;;;15.42;71.11
73842;BME280;62184;52.006;5.924;2023-04-24T06:45:06;99304.63;;;15.41;71.27
73842;BME280;62184;52.006;5.924;2023-04-24T06:47:33;99309.91;;;15.29;71.47
73842;BME280;62184;52.006;5.924;2023-04-24T06:50:02;99319.78;;;15.16;71.99
73842;BME280;62184;52.006;5.924;2023-04-24T06:52:29;99321.06;;;15.11;72.41
73842;BME280;62184;52.006;5.924;2023-04-24T06:55:00;99323.44;;;15.15;72.30
73842;BME280;62184;52.006;5.924;2023-04-24T06:57:26;99327.75;;;15.18;72.75
73842;BME280;62184;52.006;5.924;2023-04-24T06:59:53;99322.38;;;15.18;72.75
73842;BME280;62184;52.006;5.924;2023-04-24T07:02:19;99327.22;;;15.25;72.89
73842;BME280;62184;52.006;5.924;2023-04-24T07:04:46;99324.22;;;15.30;72.16
73842;BME280;62184;52.006;5.924;2023-04-24T07:07:15;99329.50;;;15.31;72.22
73842;BME280;62184;52.006;5.924;2023-04-24T07:09:41;99326.94;;;15.30;72.46
73842;BME280;62184;52.006;5.924;2023-04-24T07:12:08;99336.25;;;15.24;72.70
73842;BME280;62184;52.006;5.924;2023-04-24T07:14:35;99349.25;;;15.18;72.70
73842;BME280;62184;52.006;5.924;2023-04-24T07:17:02;99353.13;;;15.14;72.74
73842;BME280;62184;52.006;5.924;2023-04-24T07:19:29;99357.56;;;15.15;72.82
73842;BME280;62184;52.006;5.924;2023-04-24T07:21:55;99363.66;;;15.04;73.07
73842;BME280;62184;52.006;5.924;2023-04-24T07:24:24;99358.88;;;14.95;72.67
73842;BME280;62184;52.006;5.924;2023-04-24T07:26:51;99364.84;;;14.86;73.04
73842;BME280;62184;52.006;5.924;2023-04-24T07:29:18;99360.53;;;14.83;73.07
73842;BME280;62184;52.006;5.924;2023-04-24T07:31:45;99368.91;;;14.79;73.01
73842;BME280;62184;52.006;5.924;2023-04-24T07:34:11;99374.47;;;14.76;73.38
73842;BME280;62184;52.006;5.924;2023-04-24T07:36:38;99383.50;;;14.75;73.69
73842;BME280;62184;52.006;5.924;2023-04-24T07:39:04;99375.75;;;14.70;73.67
73842;BME280;62184;52.006;5.924;2023-04-24T07:41:33;99394.00;;;14.65;73.75
73842;BME280;62184;52.006;5.924;2023-04-24T07:44:00;99395.25;;;14.60;73.71
73842;BME280;62184;52.006;5.924;2023-04-24T07:46:26;99398.25;;;14.55;74.18
73842;BME280;62184;52.006;5.924;2023-04-24T07:48:53;99409.34;;;14.49;73.63
73842;BME280;62184;52.006;5.924;2023-04-24T07:51:19;99415.97;;;14.57;73.53
73842;BME280;62184;52.006;5.924;2023-04-24T07:53:45;99424.81;;;14.31;74.43
73842;BME280;62184;52.006;5.924;2023-04-24T07:56:12;99428.44;;;14.16;74.56
73842;BME280;62184;52.006;5.924;2023-04-24T07:58:41;99426.16;;;14.10;74.80
73842;BME280;62184;52.006;5.924;2023-04-24T08:01:07;99446.44;;;14.00;75.50
73842;BME280;62184;52.006;5.924;2023-04-24T08:03:34;99455.94;;;13.91;75.04
73842;BME280;62184;52.006;5.924;2023-04-24T08:06:00;99463.56;;;13.83;75.02
73842;BME280;62184;52.006;5.924;2023-04-24T08:08:26;99469.63;;;13.72;74.95
73842;BME280;62184;52.006;5.924;2023-04-24T08:10:53;99482.81;;;13.75;75.33
73842;BME280;62184;52.006;5.924;2023-04-24T08:13:19;99490.09;;;13.73;75.55
73842;BME280;62184;52.006;5.924;2023-04-24T08:15:49;99499.38;;;13.68;75.36
73842;BME280;62184;52.006;5.924;2023-04-24T08:18:15;99507.59;;;13.65;75.66
73842;BME280;62184;52.006;5.924;2023-04-24T08:20:42;99504.50;;;13.72;76.13
73842;BME280;62184;52.006;5.924;2023-04-24T08:23:08;99516.06;;;13.73;75.79
73842;BME280;62184;52.006;5.924;2023-04-24T08:25:34;99524.56;;;13.65;77.07
73842;BME280;62184;52.006;5.924;2023-04-24T08:28:02;99523.56;;;13.52;77.43
73842;BME280;62184;52.006;5.924;2023-04-24T08:30:28;99536.72;;;13.41;77.33
73842;BME280;62184;52.006;5.924;2023-04-24T08:32:57;99541.91;;;13.44;77.63
73842;BME280;62184;52.006;5.924;2023-04-24T08:35:24;99548.94;;;13.47;77.98
73842;BME280;62184;52.006;5.924;2023-04-24T08:37:51;99543.38;;;13.50;77.98
73842;BME280;62184;52.006;5.924;2023-04-24T08:40:22;99564.84;;;13.50;77.79
73842;BME280;62184;52.006;5.924;2023-04-24T08:42:54;99566.22;;;13.57;78.02
73842;BME280;62184;52.006;5.924;2023-04-24T08:45:21;99569.44;;;13.63;77.56
73842;BME280;62184;52.006;5.924;2023-04-24T08:47:49;99575.53;;;13.65;78.21
73842;BME280;62184;52.006;5.924;2023-04-24T08:50:20;99580.16;;;13.63;77.98
73842;BME280;62184;52.006;5.924;2023-04-24T08:52:49;99585.78;;;13.59;77.92
73842;BME280;62184;52.006;5.924;2023-04-24T08:55:16;99588.38;;;13.60;78.04
73842;BME280;62184;52.006;5.924;2023-04-24T08:57:44;99590.97;;;13.62;78.11
73842;BME280;62184;52.006;5.924;2023-04-24T09:00:12;99592.72;;;13.63;78.42
73842;BME280;62184;52.006;5.924;2023-04-24T09:02:41;99604.38;;;13.62;77.89
73842;BME280;62184;52.006;5.924;2023-04-24T09:05:09;99607.06;;;13.62;78.03
73842;BME280;62184;52.006;5.924;2023-04-24T09:07:39;99608.53;;;13.52;78.71
73842;BME280;62184;52.006;5.924;2023-04-24T09:10:10;99605.16;;;13.48;79.25
73842;BME280;62184;52.006;5.924;2023-04-24T09:12:38;99631.22;;;13.46;79.11
73842;BME280;62184;52.006;5.924;2023-04-24T09:15:07;99627.44;;;13.33;78.70
73842;BME280;62184;52.006;5.924;2023-04-24T09:17:34;99628.22;;;13.19;78.92
73842;BME280;62184;52.006;5.924;2023-04-24T09:20:01;99632.25;;;13.11;79.17
73842;BME280;62184;52.006;5.924;2023-04-24T09:22:29;99645.50;;;13.14;79.48
73842;BME280;62184;52.006;5.924;2023-04-24T09:25:02;99638.78;;;13.22;79.63
73842;BME280;62184;52.006;5.924;2023-04-24T09:27:31;99655.41;;;13.29;79.86
73842;BME280;62184;52.006;5.924;2023-04-24T09:29:58;99662.31;;;13.33;79.57
73842;BME280;62184;52.006;5.924;2023-04-24T09:32:25;99667.59;;;13.34;80.30
73842;BME280;62184;52.006;5.924;2023-04-24T09:35:05;99672.16;;;13.32;79.33
73842;BME280;62184;52.006;5.924;2023-04-24T09:37:38;99688.66;;;13.42;79.68
73842;BME280;62184;52.006;5.924;2023-04-24T09:40:16;99682.41;;;13.41;79.43
73842;BME280;62184;52.006;5.924;2023-04-24T09:42:44;99692.56;;;13.52;80.01
73842;BME280;62184;52.006;5.924;2023-04-24T09:45:11;99689.75;;;13.71;80.26
73842;BME280;62184;52.006;5.924;2023-04-24T09:47:39;99690.50;;;13.73;80.17
73842;BME280;62184;52.006;5.924;2023-04-24T09:50:10;99701.06;;;13.76;79.69
73842;BME280;62184;52.006;5.924;2023-04-24T09:52:42;99701.50;;;13.84;79.61
73842;BME280;62184;52.006;5.924;2023-04-24T09:55:19;99710.69;;;13.96;80.03
73842;BME280;62184;52.006;5.924;2023-04-24T09:57:50;99709.03;;;14.09;80.43
73842;BME280;62184;52.006;5.924;2023-04-24T10:00:21;99718.13;;;14.22;80.51
73842;BME280;62184;52.006;5.924;2023-04-24T10:02:54;99727.47;;;14.31;79.85
73842;BME280;62184;52.006;5.924;2023-04-24T10:05:23;99727.16;;;14.51;80.08
73842;BME280;62184;52.006;5.924;2023-04-24T10:07:56;99737.16;;;14.65;79.32
73842;BME280;62184;52.006;5.924;2023-04-24T10:10:26;99744.06;;;14.69;78.63
73842;BME280;62184;52.006;5.924;2023-04-24T10:12:52;99734.28;;;14.82;79.04
73842;BME280;62184;52.006;5.924;2023-04-24T10:15:20;99737.28;;;14.91;78.61
73842;BME280;62184;52.006;5.924;2023-04-24T10:17:48;99745.28;;;15.07;78.73
73842;BME280;62184;52.006;5.924;2023-04-24T10:20:15;99748.69;;;15.25;78.72
73842;BME280;62184;52.006;5.924;2023-04-24T10:22:42;99745.75;;;15.44;78.85
73842;BME280;62184;52.006;5.924;2023-04-24T10:25:09;99741.22;;;15.58;78.90
73842;BME280;62184;52.006;5.924;2023-04-24T10:27:39;99749.13;;;15.61;78.18
73842;BME280;62184;52.006;5.924;2023-04-24T10:30:08;99750.88;;;15.62;78.69
73842;BME280;62184;52.006;5.924;2023-04-24T10:32:37;99739.91;;;15.80;78.39
73842;BME280;62184;52.006;5.924;2023-04-24T10:35:06;99747.75;;;15.97;78.68
73842;BME280;62184;52.006;5.924;2023-04-24T10:37:36;99749.09;;;16.04;78.24
73842;BME280;62184;52.006;5.924;2023-04-24T10:40:06;99769.59;;;15.92;77.46
73842;BME280;62184;52.006;5.924;2023-04-24T10:42:34;99775.75;;;15.66;76.96
73842;BME280;62184;52.006;5.924;2023-04-24T10:45:16;99774.69;;;15.40;76.72
73842;BME280;62184;52.006;5.924;2023-04-24T10:47:43;99774.56;;;15.27;77.25
73842;BME280;62184;52.006;5.924;2023-04-24T10:50:17;99779.44;;;15.07;77.39
73842;BME280;62184;52.006;5.924;2023-04-24T10:52:44;99778.41;;;14.93;77.19
73842;BME280;62184;52.006;5.924;2023-04-24T10:55:12;99789.00;;;14.97;77.70
73842;BME280;62184;52.006;5.924;2023-04-24T10:57:39;99799.22;;;15.06;77.92
73842;BME280;62184;52.006;5.924;2023-04-24T11:00:19;99794.53;;;15.23;78.24
73842;BME280;62184;52.006;5.924;2023-04-24T11:02:48;99800.97;;;15.21;77.29
73842;BME280;62184;52.006;5.924;2023-04-24T11:05:15;99799.81;;;15.25;77.41
73842;BME280;62184;52.006;5.924;2023-04-24T11:08:12;99802.53;;;15.39;77.47
73842;BME280;62184;52.006;5.924;2023-04-24T11:10:40;99801.97;;;15.48;77.01
73842;BME280;62184;52.006;5.924;2023-04-24T11:13:09;99807.94;;;15.53;77.12
73842;BME280;62184;52.006;5.924;2023-04-24T11:15:41;99808.88;;;15.52;78.68
73842;BME280;62184;52.006;5.924;2023-04-24T11:18:11;99821.25;;;15.26;76.32
73842;BME280;62184;52.006;5.924;2023-04-24T11:20:42;99821.31;;;15.11;76.32
73842;BME280;62184;52.006;5.924;2023-04-24T11:23:09;99826.13;;;15.20;77.16
73842;BME280;62184;52.006;5.924;2023-04-24T11:25:38;99829.53;;;15.38;77.84
73842;BME280;62184;52.006;5.924;2023-04-24T11:28:05;99823.31;;;15.51;77.08
73842;BME280;62184;52.006;5.924;2023-04-24T11:30:33;99838.75;;;15.63;74.86
73842;BME280;62184;52.006;5.924;2023-04-24T11:33:05;99834.72;;;15.71;76.00
73842;BME280;62184;52.006;5.924;2023-04-24T11:35:35;99841.06;;;15.69;76.32
73842;BME280;62184;52.006;5.924;2023-04-24T11:38:06;99853.94;;;15.64;76.14
73842;BME280;62184;52.006;5.924;2023-04-24T11:40:33;99842.63;;;15.58;76.69
73842;BME280;62184;52.006;5.924;2023-04-24T11:43:00;99849.84;;;15.57;76.34
73842;BME280;62184;52.006;5.924;2023-04-24T11:45:27;99850.63;;;15.59;75.97
73842;BME280;62184;52.006;5.924;2023-04-24T11:47:54;99843.19;;;15.64;77.05
73842;BME280;62184;52.006;5.924;2023-04-24T11:50:25;99856.44;;;15.67;76.52
73842;BME280;62184;52.006;5.924;2023-04-24T11:52:52;99847.44;;;15.53;75.92
73842;BME280;62184;52.006;5.924;2023-04-24T11:55:26;99853.47;;;15.42;75.32
73842;BME280;62184;52.006;5.924;2023-04-24T11:57:55;99857.22;;;15.40;74.84
73842;BME280;62184;52.006;5.924;2023-04-24T12:00:24;99864.97;;;15.30;75.80
73842;BME280;62184;52.006;5.924;2023-04-24T12:03:04;99874.81;;;15.15;75.26
73842;BME280;62184;52.006;5.924;2023-04-24T12:05:35;99878.59;;;14.97;74.74
73842;BME280;62184;52.006;5.924;2023-04-24T12:08:01;99886.06;;;14.76;75.04
73842;BME280;62184;52.006;5.924;2023-04-24T12:10:30;99890.66;;;14.59;76.01
73842;BME280;62184;52.006;5.924;2023-04-24T12:12:58;99900.44;;;14.44;75.79
73842;BME280;62184;52.006;5.924;2023-04-24T12:15:26;99904.84;;;14.45;75.76
73842;BME280;62184;52.006;5.924;2023-04-24T12:17:55;99899.50;;;14.61;76.45
73842;BME280;62184;52.006;5.924;2023-04-24T12:20:25;99898.38;;;14.96;76.62
73842;BME280;62184;52.006;5.924;2023-04-24T12:22:57;99888.50;;;15.26;76.14
73842;BME280;62184;52.006;5.924;2023-04-24T12:25:26;99893.19;;;15.53;76.53
73842;BME280;62184;52.006;5.924;2023-04-24T12:27:54;99898.72;;;15.65;76.02
73842;BME280;62184;52.006;5.924;2023-04-24T12:30:40;99906.84;;;15.94;76.44
73842;BME280;62184;52.006;5.924;2023-04-24T12:33:08;99897.84;;;16.23;76.06
73842;BME280;62184;52.006;5.924;2023-04-24T12:35:34;99906.66;;;16.39;75.57
73842;BME280;62184;52.006;5.924;2023-04-24T12:38:08;99909.34;;;16.54;75.77
73842;BME280;62184;52.006;5.924;2023-04-24T12:40:35;99927.56;;;16.64;73.96
73842;BME280;62184;52.006;5.924;2023-04-24T12:43:02;99912.31;;;16.77;74.51
73842;BME280;62184;52.006;5.924;2023-04-24T12:45:39;99914.91;;;16.79;74.29
73842;BME280;62184;52.006;5.924;2023-04-24T12:48:05;99929.09;;;16.68;72.50
73842;BME280;62184;52.006;5.924;2023-04-24T12:50:32;99924.25;;;16.59;72.95
73842;BME280;62184;52.006;5.924;2023-04-24T12:52:58;99932.81;;;16.52;72.41
73842;BME280;62184;52.006;5.924;2023-04-24T12:55:28;99933.25;;;16.31;71.71
73842;BME280;62184;52.006;5.924;2023-04-24T12:57:54;99939.00;;;16.11;72.33
73842;BME280;62184;52.006;5.924;2023-04-24T13:00:21;99931.88;;;16.10;72.64
73842;BME280;62184;52.006;5.924;2023-04-24T13:02:47;99935.91;;;16.03;71.06